sensor_id;sensor_type;location;lat;lon;timestamp;temperature;humidity
5392;DHT22;2719;53.624;9.786;2023-09-08T00:00:38;20.70;99.90
5392;DHT22;2719;53.624;9.786;2023-09-08T00:03:04;20.60;99.90
5392;DHT22;2719;53.624;9.786;2023-09-08T00:05:31;20.60;99.90
5392;DHT22;2719;53.624;9.786;2023-09-08T00:07:58;20.60;99.90
5392;DHT22;2719;53.624;9.786;2023-09-08T00:10:26;20.50;99.90
5392;DHT22;2719;53.624;9.786;2023-09-08T00:12:52;20.50;99.90
5392;DHT22;2719;53.624;9.786;2023-09-08T00:15:19;20.40;99.90
5392;DHT22;2719;53.624;9.786;2023-09-08T00:17:46;20.50;99.90
5392;DHT22;2719;53.624;9.786;2023-09-08T00:20:13;20.40;99.90
5392;DHT22;2719;53.624;9.786;2023-09-08T00:22:40;20.40;99.90
5392;DHT22;2719;53.624;9.786;2023-09-08T00:25:07;20.40;99.90
5392;DHT22;2719;53.624;9.786;2023-09-08T00:27:35;20.40;99.90
5392;DHT22;2719;53.624;9.786;2023-09-08T00:30:02;20.30;99.90
5392;DHT22;2719;53.624;9.786;2023-09-08T00:32:29;20.30;99.90
5392;DHT22;2719;53.624;9.786;2023-09-08T00:34:55;20.30;99.90
5392;DHT22;2719;53.624;9.786;2023-09-08T00:37:22;20.30;99.90
5392;DHT22;2719;53.624;9.786;2023-09-08T00:39:49;20.20;99.90
5392;DHT22;2719;53.624;9.786;2023-09-08T00:42:16;20.20;99.90
5392;DHT22;2719;53.624;9.786;2023-09-08T00:44:44;20.20;99.90
5392;DHT22;2719;53.624;9.786;2023-09-08T00:47:11;20.20;99.90
5392;DHT22;2719;53.624;9.786;2023-09-08T00:49:38;20.20;99.90
5392;DHT22;2719;53.624;9.786;2023-09-08T00:52:05;20.30;99.90
5392;DHT22;2719;53.624;9.786;2023-09-08T00:54:32;20.20;99.90
5392;DHT22;2719;53.624;9.786;2023-09-08T00:57:01;20.30;99.90
5392;DHT22;2719;53.624;9.786;2023-09-08T00:59:29;20.20;99.90
5392;DHT22;2719;53.624;9.786;2023-09-08T01:01:57;20.30;99.90
5392;DHT22;2719;53.624;9.786;2023-09-08T01:04:24;20.30;99.90
5392;DHT22;2719;53.624;9.786;2023-09-08T01:06:51;20.20;99.90
5392;DHT22;2719;53.624;9.786;2023-09-08T01:09:18;20.20;99.90
5392;DHT22;2719;53.624;9.786;2023-09-08T01:11:45;20.20;99.90
5392;DHT22;2719;53.624;9.786;2023-09-08T01:14:12;20.10;99.90
5392;DHT22;2719;53.624;9.786;2023-09-08T01:16:39;20.10;99.90
5392;DHT22;2719;53.624;9.786;2023-09-08T01:19:11;20.10;99.90
5392;DHT22;2719;53.624;9.786;2023-09-08T01:22:10;20.20;99.90
5392;DHT22;2719;53.624;9.786;2023-09-08T01:24:57;20.20;99.90
5392;DHT22;2719;53.624;9.786;2023-09-08T01:27:27;20.20;99.90
5392;DHT22;2719;53.624;9.786;2023-09-08T01:29:55;20.20;99.90
5392;DHT22;2719;53.624;9.786;2023-09-08T01:32:22;20.10;99.90
5392;DHT22;2719;53.624;9.786;2023-09-08T01:34:49;20.10;99.90
5392;DHT22;2719;53.624;9.786;2023-09-08T01:40:40;20.00;99.90
5392;DHT22;2719;53.624;9.786;2023-09-08T01:43:07;20.00;99.90
5392;DHT22;2719;53.624;9.786;2023-09-08T01:45:34;20.00;99.90
5392;DHT22;2719;53.624;9.786;2023-09-08T01:48:00;20.00;99.90
5392;DHT22;2719;53.624;9.786;2023-09-08T01:50:27;20.00;99.90
5392;DHT22;2719;53.624;9.786;2023-09-08T01:52:53;19.90;99.90
5392;DHT22;2719;53.624;9.786;2023-09-08T01:55:20;19.90;99.90
5392;DHT22;2719;53.624;9.786;2023-09-08T01:57:48;19.90;99.90
5392;DHT22;2719;53.624;9.786;2023-09-08T02:00:15;19.90;99.90
5392;DHT22;2719;53.624;9.786;2023-09-08T02:02:42;19.90;99.90
5392;DHT22;2719;53.624;9.786;2023-09-08T02:05:08;19.90;99.90
5392;DHT22;2719;53.624;9.786;2023-09-08T02:07:35;19.80;99.90
5392;DHT22;2719;53.624;9.786;2023-09-08T02:10:02;19.80;99.90
5392;DHT22;2719;53.624;9.786;2023-09-08T02:12:28;19.80;99.90
5392;DHT22;2719;53.624;9.786;2023-09-08T02:14:57;19.70;99.90
5392;DHT22;2719;53.624;9.786;2023-09-08T02:17:25;19.70;99.90
5392;DHT22;2719;53.624;9.786;2023-09-08T02:19:51;19.70;99.90
5392;DHT22;2719;53.624;9.786;2023-09-08T02:22:18;19.70;99.90
5392;DHT22;2719;53.624;9.786;2023-09-08T02:24:45;19.70;99.90
5392;DHT22;2719;53.624;9.786;2023-09-08T02:27:11;19.60;99.90
5392;DHT22;2719;53.624;9.786;2023-09-08T02:29:38;19.60;99.90
5392;DHT22;2719;53.624;9.786;2023-09-08T02:32:06;19.50;99.90
5392;DHT22;2719;53.624;9.786;2023-09-08T02:34:34;19.60;99.90
5392;DHT22;2719;53.624;9.786;2023-09-08T02:37:02;19.60;99.90
5392;DHT22;2719;53.624;9.786;2023-09-08T02:39:29;19.50;99.90
5392;DHT22;2719;53.624;9.786;2023-09-08T02:41:56;19.50;99.90
5392;DHT22;2719;53.624;9.786;2023-09-08T02:44:22;19.50;99.90
5392;DHT22;2719;53.624;9.786;2023-09-08T02:46:49;19.30;99.90
5392;DHT22;2719;53.624;9.786;2023-09-08T02:49:17;19.30;99.90
5392;DHT22;2719;53.624;9.786;2023-09-08T02:51:43;19.20;99.90
5392;DHT22;2719;53.624;9.786;2023-09-08T02:54:10;19.20;99.90
5392;DHT22;2719;53.624;9.786;2023-09-08T02:56:36;19.20;99.90
5392;DHT22;2719;53.624;9.786;2023-09-08T02:59:03;19.20;99.90
5392;DHT22;2719;53.624;9.786;2023-09-08T03:01:30;19.20;99.90
5392;DHT22;2719;53.624;9.786;2023-09-08T03:03:57;19.30;99.90
5392;DHT22;2719;53.624;9.786;2023-09-08T03:06:25;19.30;99.90
5392;DHT22;2719;53.624;9.786;2023-09-08T03:08:52;19.30;99.90
5392;DHT22;2719;53.624;9.786;2023-09-08T03:11:18;19.30;99.90
5392;DHT22;2719;53.624;9.786;2023-09-08T03:13:45;19.30;99.90
5392;DHT22;2719;53.624;9.786;2023-09-08T03:16:11;19.20;99.90
5392;DHT22;2719;53.624;9.786;2023-09-08T03:18:38;19.20;99.90
5392;DHT22;2719;53.624;9.786;2023-09-08T03:21:05;19.10;99.90
5392;DHT22;2719;53.624;9.786;2023-09-08T03:23:36;18.90;99.90
5392;DHT22;2719;53.624;9.786;2023-09-08T03:26:03;18.80;99.90
5392;DHT22;2719;53.624;9.786;2023-09-08T03:28:30;18.90;99.90
5392;DHT22;2719;53.624;9.786;2023-09-08T03:30:57;19.00;99.90
5392;DHT22;2719;53.624;9.786;2023-09-08T03:33:24;18.90;99.90
5392;DHT22;2719;53.624;9.786;2023-09-08T03:35:50;18.90;99.90
5392;DHT22;2719;53.624;9.786;2023-09-08T03:38:17;18.90;99.90
5392;DHT22;2719;53.624;9.786;2023-09-08T03:40:45;18.90;99.90
5392;DHT22;2719;53.624;9.786;2023-09-08T03:43:12;18.90;99.90
5392;DHT22;2719;53.624;9.786;2023-09-08T03:45:39;18.80;99.90
5392;DHT22;2719;53.624;9.786;2023-09-08T03:48:06;18.90;99.90
5392;DHT22;2719;53.624;9.786;2023-09-08T03:50:32;18.90;99.90
5392;DHT22;2719;53.624;9.786;2023-09-08T03:52:59;18.90;99.90
5392;DHT22;2719;53.624;9.786;2023-09-08T03:55:26;18.90;99.90
5392;DHT22;2719;53.624;9.786;2023-09-08T03:57:54;18.90;99.90
5392;DHT22;2719;53.624;9.786;2023-09-08T04:00:21;18.90;99.90
5392;DHT22;2719;53.624;9.786;2023-09-08T04:02:48;18.90;99.90
5392;DHT22;2719;53.624;9.786;2023-09-08T04:05:15;18.90;99.90
5392;DHT22;2719;53.624;9.786;2023-09-08T04:07:42;18.90;99.90
5392;DHT22;2719;53.624;9.786;2023-09-08T04:10:09;18.90;99.90
5392;DHT22;2719;53.624;9.786;2023-09-08T04:12:35;18.90;99.90
5392;DHT22;2719;53.624;9.786;2023-09-08T04:15:04;18.90;99.90
5392;DHT22;2719;53.624;9.786;2023-09-08T04:17:31;18.80;99.90
5392;DHT22;2719;53.624;9.786;2023-09-08T04:19:58;18.60;99.90
5392;DHT22;2719;53.624;9.786;2023-09-08T04:22:25;18.70;99.90
5392;DHT22;2719;53.624;9.786;2023-09-08T04:24:52;18.70;99.90
5392;DHT22;2719;53.624;9.786;2023-09-08T04:27:19;18.60;99.90
5392;DHT22;2719;53.624;9.786;2023-09-08T04:29:46;18.60;99.90
5392;DHT22;2719;53.624;9.786;2023-09-08T04:32:14;18.60;99.90
5392;DHT22;2719;53.624;9.786;2023-09-08T04:34:41;18.50;99.90
5392;DHT22;2719;53.624;9.786;2023-09-08T04:37:09;18.60;99.90
5392;DHT22;2719;53.624;9.786;2023-09-08T04:39:36;18.60;99.90
5392;DHT22;2719;53.624;9.786;2023-09-08T04:42:03;18.60;99.90
5392;DHT22;2719;53.624;9.786;2023-09-08T04:44:30;18.60;99.90
5392;DHT22;2719;53.624;9.786;2023-09-08T04:46:57;18.60;99.90
5392;DHT22;2719;53.624;9.786;2023-09-08T04:49:25;18.60;99.90
5392;DHT22;2719;53.624;9.786;2023-09-08T04:51:51;18.60;99.90
5392;DHT22;2719;53.624;9.786;2023-09-08T04:54:18;18.60;99.90
5392;DHT22;2719;53.624;9.786;2023-09-08T04:56:45;18.50;99.90
5392;DHT22;2719;53.624;9.786;2023-09-08T04:59:12;18.60;99.90
5392;DHT22;2719;53.624;9.786;2023-09-08T05:01:39;18.60;99.90
5392;DHT22;2719;53.624;9.786;2023-09-08T05:04:05;18.50;99.90
5392;DHT22;2719;53.624;9.786;2023-09-08T05:06:33;18.50;99.90
5392;DHT22;2719;53.624;9.786;2023-09-08T05:09:00;18.60;99.90
5392;DHT22;2719;53.624;9.786;2023-09-08T05:11:26;18.60;99.90
5392;DHT22;2719;53.624;9.786;2023-09-08T05:13:53;18.60;99.90
5392;DHT22;2719;53.624;9.786;2023-09-08T05:16:20;18.60;99.90
5392;DHT22;2719;53.624;9.786;2023-09-08T05:19:01;18.50;99.90
5392;DHT22;2719;53.624;9.786;2023-09-08T05:21:28;18.50;99.90
5392;DHT22;2719;53.624;9.786;2023-09-08T05:23:55;18.40;99.90
5392;DHT22;2719;53.624;9.786;2023-09-08T05:26:21;18.40;99.90
5392;DHT22;2719;53.624;9.786;2023-09-08T05:28:48;18.40;99.90
5392;DHT22;2719;53.624;9.786;2023-09-08T05:31:14;18.40;99.90
5392;DHT22;2719;53.624;9.786;2023-09-08T05:33:41;18.40;99.90
5392;DHT22;2719;53.624;9.786;2023-09-08T05:36:08;18.50;99.90
5392;DHT22;2719;53.624;9.786;2023-09-08T05:38:34;18.50;99.90
5392;DHT22;2719;53.624;9.786;2023-09-08T05:41:02;18.60;99.90
5392;DHT22;2719;53.624;9.786;2023-09-08T05:43:29;18.60;99.90
5392;DHT22;2719;53.624;9.786;2023-09-08T05:45:55;18.50;99.90
5392;DHT22;2719;53.624;9.786;2023-09-08T05:48:22;18.60;99.90
5392;DHT22;2719;53.624;9.786;2023-09-08T05:50:49;18.50;99.90
5392;DHT22;2719;53.624;9.786;2023-09-08T05:53:15;18.60;99.90
5392;DHT22;2719;53.624;9.786;2023-09-08T05:55:42;18.60;99.90
5392;DHT22;2719;53.624;9.786;2023-09-08T05:58:10;18.70;99.90
5392;DHT22;2719;53.624;9.786;2023-09-08T06:00:36;18.80;99.90
5392;DHT22;2719;53.624;9.786;2023-09-08T06:03:04;18.80;99.90
5392;DHT22;2719;53.624;9.786;2023-09-08T06:05:30;18.90;99.90
5392;DHT22;2719;53.624;9.786;2023-09-08T06:07:57;18.90;99.90
5392;DHT22;2719;53.624;9.786;2023-09-08T06:10:24;19.00;99.90
5392;DHT22;2719;53.624;9.786;2023-09-08T06:12:50;19.10;99.90
5392;DHT22;2719;53.624;9.786;2023-09-08T06:15:18;19.30;99.90
5392;DHT22;2719;53.624;9.786;2023-09-08T06:17:45;19.40;99.90
5392;DHT22;2719;53.624;9.786;2023-09-08T06:20:13;19.50;99.90
5392;DHT22;2719;53.624;9.786;2023-09-08T06:22:41;19.60;99.90
5392;DHT22;2719;53.624;9.786;2023-09-08T06:25:08;19.70;99.90
5392;DHT22;2719;53.624;9.786;2023-09-08T06:27:35;19.90;99.90
5392;DHT22;2719;53.624;9.786;2023-09-08T06:30:02;19.90;99.90
5392;DHT22;2719;53.624;9.786;2023-09-08T06:32:30;20.00;99.90
5392;DHT22;2719;53.624;9.786;2023-09-08T06:34:56;20.10;99.90
5392;DHT22;2719;53.624;9.786;2023-09-08T06:37:23;20.30;99.90
5392;DHT22;2719;53.624;9.786;2023-09-08T06:39:49;20.40;99.90
5392;DHT22;2719;53.624;9.786;2023-09-08T06:42:17;20.50;99.90
5392;DHT22;2719;53.624;9.786;2023-09-08T06:44:43;20.50;99.90
5392;DHT22;2719;53.624;9.786;2023-09-08T06:47:10;20.60;99.90
5392;DHT22;2719;53.624;9.786;2023-09-08T06:49:38;20.80;99.90
5392;DHT22;2719;53.624;9.786;2023-09-08T06:52:05;20.80;99.90
5392;DHT22;2719;53.624;9.786;2023-09-08T06:54:32;20.80;99.90
5392;DHT22;2719;53.624;9.786;2023-09-08T06:56:58;20.90;99.90
5392;DHT22;2719;53.624;9.786;2023-09-08T06:59:25;21.10;99.90
5392;DHT22;2719;53.624;9.786;2023-09-08T07:01:52;21.30;99.90
5392;DHT22;2719;53.624;9.786;2023-09-08T07:04:18;21.20;99.90
5392;DHT22;2719;53.624;9.786;2023-09-08T07:06:46;21.30;99.90
5392;DHT22;2719;53.624;9.786;2023-09-08T07:09:15;21.40;99.90
5392;DHT22;2719;53.624;9.786;2023-09-08T07:11:42;21.60;99.90
5392;DHT22;2719;53.624;9.786;2023-09-08T07:14:08;21.70;99.90
5392;DHT22;2719;53.624;9.786;2023-09-08T07:16:35;21.80;99.90
5392;DHT22;2719;53.624;9.786;2023-09-08T07:19:02;21.90;99.90
5392;DHT22;2719;53.624;9.786;2023-09-08T07:21:28;21.90;99.90
5392;DHT22;2719;53.624;9.786;2023-09-08T07:23:56;22.10;99.90
5392;DHT22;2719;53.624;9.786;2023-09-08T07:26:23;22.20;99.90
5392;DHT22;2719;53.624;9.786;2023-09-08T07:28:50;22.20;99.90
5392;DHT22;2719;53.624;9.786;2023-09-08T07:31:16;22.30;99.90
5392;DHT22;2719;53.624;9.786;2023-09-08T07:33:43;22.40;99.90
5392;DHT22;2719;53.624;9.786;2023-09-08T07:36:10;22.50;99.90
5392;DHT22;2719;53.624;9.786;2023-09-08T07:38:37;22.60;99.90
5392;DHT22;2719;53.624;9.786;2023-09-08T07:41:05;22.60;99.90
5392;DHT22;2719;53.624;9.786;2023-09-08T07:43:32;22.60;99.90
5392;DHT22;2719;53.624;9.786;2023-09-08T07:45:59;22.70;99.90
5392;DHT22;2719;53.624;9.786;2023-09-08T07:48:25;22.70;99.90
5392;DHT22;2719;53.624;9.786;2023-09-08T07:50:52;22.70;99.90
5392;DHT22;2719;53.624;9.786;2023-09-08T07:53:18;22.70;99.90
5392;DHT22;2719;53.624;9.786;2023-09-08T07:55:45;22.80;99.90
5392;DHT22;2719;53.624;9.786;2023-09-08T07:58:13;22.80;99.90
5392;DHT22;2719;53.624;9.786;2023-09-08T08:00:40;22.90;99.90
5392;DHT22;2719;53.624;9.786;2023-09-08T08:03:06;22.90;99.90
5392;DHT22;2719;53.624;9.786;2023-09-08T08:05:33;22.90;99.90
5392;DHT22;2719;53.624;9.786;2023-09-08T08:08:00;22.90;99.90
5392;DHT22;2719;53.624;9.786;2023-09-08T08:10:27;23.00;99.90
5392;DHT22;2719;53.624;9.786;2023-09-08T08:12:53;22.90;99.90
5392;DHT22;2719;53.624;9.786;2023-09-08T08:15:23;22.90;99.90
5392;DHT22;2719;53.624;9.786;2023-09-08T08:18:00;22.90;99.90
5392;DHT22;2719;53.624;9.786;2023-09-08T08:20:27;23.00;99.90
5392;DHT22;2719;53.624;9.786;2023-09-08T08:22:53;23.00;99.90
5392;DHT22;2719;53.624;9.786;2023-09-08T08:25:20;23.00;99.90
5392;DHT22;2719;53.624;9.786;2023-09-08T08:27:47;23.00;99.90
5392;DHT22;2719;53.624;9.786;2023-09-08T08:30:13;23.00;99.90
5392;DHT22;2719;53.624;9.786;2023-09-08T08:32:41;23.00;99.90
5392;DHT22;2719;53.624;9.786;2023-09-08T08:35:08;23.10;99.90
5392;DHT22;2719;53.624;9.786;2023-09-08T08:37:35;23.10;99.90
5392;DHT22;2719;53.624;9.786;2023-09-08T08:40:02;23.10;99.90
5392;DHT22;2719;53.624;9.786;2023-09-08T08:42:31;23.10;99.90
5392;DHT22;2719;53.624;9.786;2023-09-08T08:44:58;23.20;99.90
5392;DHT22;2719;53.624;9.786;2023-09-08T08:47:25;23.30;99.90
5392;DHT22;2719;53.624;9.786;2023-09-08T08:49:55;23.30;99.90
5392;DHT22;2719;53.624;9.786;2023-09-08T08:52:23;23.30;99.90
5392;DHT22;2719;53.624;9.786;2023-09-08T08:54:50;23.40;99.90
5392;DHT22;2719;53.624;9.786;2023-09-08T08:57:17;23.40;99.90
5392;DHT22;2719;53.624;9.786;2023-09-08T08:59:44;23.30;99.90
5392;DHT22;2719;53.624;9.786;2023-09-08T09:02:12;23.40;99.90
5392;DHT22;2719;53.624;9.786;2023-09-08T09:04:40;23.40;99.90
5392;DHT22;2719;53.624;9.786;2023-09-08T09:07:09;23.40;99.90
5392;DHT22;2719;53.624;9.786;2023-09-08T09:09:36;23.40;99.90
5392;DHT22;2719;53.624;9.786;2023-09-08T09:12:05;23.50;99.90
5392;DHT22;2719;53.624;9.786;2023-09-08T09:14:32;23.50;99.90
5392;DHT22;2719;53.624;9.786;2023-09-08T09:17:00;23.50;99.90
5392;DHT22;2719;53.624;9.786;2023-09-08T09:19:29;23.60;99.90
5392;DHT22;2719;53.624;9.786;2023-09-08T09:21:58;23.60;99.90
5392;DHT22;2719;53.624;9.786;2023-09-08T09:24:33;23.80;99.90
5392;DHT22;2719;53.624;9.786;2023-09-08T09:27:03;23.70;99.90
5392;DHT22;2719;53.624;9.786;2023-09-08T09:29:31;23.70;99.90
5392;DHT22;2719;53.624;9.786;2023-09-08T09:32:02;23.80;99.90
5392;DHT22;2719;53.624;9.786;2023-09-08T09:34:29;23.80;99.90
5392;DHT22;2719;53.624;9.786;2023-09-08T09:36:56;23.90;99.90
5392;DHT22;2719;53.624;9.786;2023-09-08T09:39:24;23.90;99.90
5392;DHT22;2719;53.624;9.786;2023-09-08T09:41:55;23.90;99.90
5392;DHT22;2719;53.624;9.786;2023-09-08T09:44:22;24.00;99.90
5392;DHT22;2719;53.624;9.786;2023-09-08T09:46:51;24.10;99.90
5392;DHT22;2719;53.624;9.786;2023-09-08T09:49:18;24.20;99.90
5392;DHT22;2719;53.624;9.786;2023-09-08T09:51:46;24.20;99.90
5392;DHT22;2719;53.624;9.786;2023-09-08T09:54:14;24.30;99.90
5392;DHT22;2719;53.624;9.786;2023-09-08T09:56:41;24.30;99.90
5392;DHT22;2719;53.624;9.786;2023-09-08T09:59:11;24.30;99.90
5392;DHT22;2719;53.624;9.786;2023-09-08T10:01:40;24.40;99.90
5392;DHT22;2719;53.624;9.786;2023-09-08T10:04:08;24.40;99.90
5392;DHT22;2719;53.624;9.786;2023-09-08T10:06:35;24.40;99.90
5392;DHT22;2719;53.624;9.786;2023-09-08T10:09:04;24.50;99.90
5392;DHT22;2719;53.624;9.786;2023-09-08T10:11:35;24.60;99.90
5392;DHT22;2719;53.624;9.786;2023-09-08T10:14:04;24.60;99.90
5392;DHT22;2719;53.624;9.786;2023-09-08T10:16:35;24.70;99.90
5392;DHT22;2719;53.624;9.786;2023-09-08T10:19:03;24.70;99.90
5392;DHT22;2719;53.624;9.786;2023-09-08T10:21:33;24.80;99.90
5392;DHT22;2719;53.624;9.786;2023-09-08T10:24:06;24.80;99.90
5392;DHT22;2719;53.624;9.786;2023-09-08T10:26:36;24.90;99.90
5392;DHT22;2719;53.624;9.786;2023-09-08T10:29:04;24.90;99.90
5392;DHT22;2719;53.624;9.786;2023-09-08T10:31:31;25.00;99.90
5392;DHT22;2719;53.624;9.786;2023-09-08T10:34:00;25.00;99.90
5392;DHT22;2719;53.624;9.786;2023-09-08T10:36:27;25.10;99.90
5392;DHT22;2719;53.624;9.786;2023-09-08T10:39:27;25.10;99.90
5392;DHT22;2719;53.624;9.786;2023-09-08T10:42:19;25.20;99.90
5392;DHT22;2719;53.624;9.786;2023-09-08T10:44:58;25.20;99.90
5392;DHT22;2719;53.624;9.786;2023-09-08T10:47:32;25.30;99.90
5392;DHT22;2719;53.624;9.786;2023-09-08T10:50:04;25.30;99.90
5392;DHT22;2719;53.624;9.786;2023-09-08T10:52:31;25.30;99.90
5392;DHT22;2719;53.624;9.786;2023-09-08T10:55:00;25.40;99.90
5392;DHT22;2719;53.624;9.786;2023-09-08T10:57:27;25.40;99.90
5392;DHT22;2719;53.624;9.786;2023-09-08T10:59:57;25.50;99.90
5392;DHT22;2719;53.624;9.786;2023-09-08T11:02:33;25.60;99.90
5392;DHT22;2719;53.624;9.786;2023-09-08T11:05:01;25.50;99.90
5392;DHT22;2719;53.624;9.786;2023-09-08T11:07:29;25.50;99.90
5392;DHT22;2719;53.624;9.786;2023-09-08T11:09:55;25.60;99.90
5392;DHT22;2719;53.624;9.786;2023-09-08T11:12:22;25.70;99.90
5392;DHT22;2719;53.624;9.786;2023-09-08T11:14:50;25.70;99.90
5392;DHT22;2719;53.624;9.786;2023-09-08T11:17:16;25.80;99.90
5392;DHT22;2719;53.624;9.786;2023-09-08T11:19:44;25.80;99.90
5392;DHT22;2719;53.624;9.786;2023-09-08T11:22:11;25.80;99.90
5392;DHT22;2719;53.624;9.786;2023-09-08T11:24:41;25.90;99.90
5392;DHT22;2719;53.624;9.786;2023-09-08T11:27:08;25.90;99.90
5392;DHT22;2719;53.624;9.786;2023-09-08T11:29:35;26.00;99.90
5392;DHT22;2719;53.624;9.786;2023-09-08T11:32:02;26.00;99.90
5392;DHT22;2719;53.624;9.786;2023-09-08T11:34:29;26.10;99.90
5392;DHT22;2719;53.624;9.786;2023-09-08T11:36:56;26.10;99.90
5392;DHT22;2719;53.624;9.786;2023-09-08T11:39:23;26.30;99.90
5392;DHT22;2719;53.624;9.786;2023-09-08T11:41:52;26.30;99.90
5392;DHT22;2719;53.624;9.786;2023-09-08T11:44:19;26.30;99.90
5392;DHT22;2719;53.624;9.786;2023-09-08T11:46:46;26.40;99.90
5392;DHT22;2719;53.624;9.786;2023-09-08T11:49:13;26.50;99.90
5392;DHT22;2719;53.624;9.786;2023-09-08T11:51:40;26.50;99.90
5392;DHT22;2719;53.624;9.786;2023-09-08T11:54:07;26.60;99.90
5392;DHT22;2719;53.624;9.786;2023-09-08T11:56:33;26.60;99.90
5392;DHT22;2719;53.624;9.786;2023-09-08T11:59:02;26.80;99.90
5392;DHT22;2719;53.624;9.786;2023-09-08T12:01:29;26.90;99.90
5392;DHT22;2719;53.624;9.786;2023-09-08T12:03:56;26.90;99.90
5392;DHT22;2719;53.624;9.786;2023-09-08T12:06:24;27.00;99.90
5392;DHT22;2719;53.624;9.786;2023-09-08T12:08:51;27.00;99.90
5392;DHT22;2719;53.624;9.786;2023-09-08T12:11:18;27.10;99.90
5392;DHT22;2719;53.624;9.786;2023-09-08T12:13:45;27.00;99.90
5392;DHT22;2719;53.624;9.786;2023-09-08T12:16:21;27.10;99.90
5392;DHT22;2719;53.624;9.786;2023-09-08T12:18:49;27.30;99.90
5392;DHT22;2719;53.624;9.786;2023-09-08T12:21:16;27.40;99.90
5392;DHT22;2719;53.624;9.786;2023-09-08T12:23:49;27.60;99.20
5392;DHT22;2719;53.624;9.786;2023-09-08T12:26:16;27.70;99.00
5392;DHT22;2719;53.624;9.786;2023-09-08T12:28:43;27.70;99.50
5392;DHT22;2719;53.624;9.786;2023-09-08T12:31:10;27.90;98.50
5392;DHT22;2719;53.624;9.786;2023-09-08T12:33:41;27.90;99.20
5392;DHT22;2719;53.624;9.786;2023-09-08T12:36:12;28.00;99.00
5392;DHT22;2719;53.624;9.786;2023-09-08T12:38:39;28.10;98.50
5392;DHT22;2719;53.624;9.786;2023-09-08T12:41:06;28.20;97.50
5392;DHT22;2719;53.624;9.786;2023-09-08T12:43:32;28.30;97.40
5392;DHT22;2719;53.624;9.786;2023-09-08T12:46:00;28.40;96.30
5392;DHT22;2719;53.624;9.786;2023-09-08T12:48:27;28.40;97.20
5392;DHT22;2719;53.624;9.786;2023-09-08T12:50:55;28.50;95.40
5392;DHT22;2719;53.624;9.786;2023-09-08T12:53:22;28.80;95.50
5392;DHT22;2719;53.624;9.786;2023-09-08T12:55:49;28.90;96.10
5392;DHT22;2719;53.624;9.786;2023-09-08T12:58:16;29.10;95.00
5392;DHT22;2719;53.624;9.786;2023-09-08T13:00:44;28.90;94.00
5392;DHT22;2719;53.624;9.786;2023-09-08T13:03:10;29.20;92.90
5392;DHT22;2719;53.624;9.786;2023-09-08T13:05:37;29.30;92.70
5392;DHT22;2719;53.624;9.786;2023-09-08T13:08:05;29.30;91.70
5392;DHT22;2719;53.624;9.786;2023-09-08T13:10:32;29.40;91.40
5392;DHT22;2719;53.624;9.786;2023-09-08T13:12:58;29.60;91.30
5392;DHT22;2719;53.624;9.786;2023-09-08T13:15:25;29.60;94.30
5392;DHT22;2719;53.624;9.786;2023-09-08T13:17:52;29.80;92.20
5392;DHT22;2719;53.624;9.786;2023-09-08T13:20:18;29.90;92.60
5392;DHT22;2719;53.624;9.786;2023-09-08T13:22:45;29.90;91.70
5392;DHT22;2719;53.624;9.786;2023-09-08T13:25:13;30.10;92.50
5392;DHT22;2719;53.624;9.786;2023-09-08T13:27:40;30.20;92.20
5392;DHT22;2719;53.624;9.786;2023-09-08T13:30:11;30.20;91.10
5392;DHT22;2719;53.624;9.786;2023-09-08T13:32:39;30.30;91.20
5392;DHT22;2719;53.624;9.786;2023-09-08T13:35:06;30.40;91.20
5392;DHT22;2719;53.624;9.786;2023-09-08T13:37:33;30.30;90.00
5392;DHT22;2719;53.624;9.786;2023-09-08T13:40:00;30.40;90.10
5392;DHT22;2719;53.624;9.786;2023-09-08T13:42:29;30.40;90.00
5392;DHT22;2719;53.624;9.786;2023-09-08T13:44:56;30.60;90.30
5392;DHT22;2719;53.624;9.786;2023-09-08T13:47:22;30.70;91.90
5392;DHT22;2719;53.624;9.786;2023-09-08T13:49:49;30.80;90.50
5392;DHT22;2719;53.624;9.786;2023-09-08T13:52:16;30.80;89.90
5392;DHT22;2719;53.624;9.786;2023-09-08T13:54:42;30.80;89.90
5392;DHT22;2719;53.624;9.786;2023-09-08T13:57:09;30.90;88.40
5392;DHT22;2719;53.624;9.786;2023-09-08T13:59:37;31.00;88.80
5392;DHT22;2719;53.624;9.786;2023-09-08T14:02:04;31.00;86.70
5392;DHT22;2719;53.624;9.786;2023-09-08T14:04:30;31.00;87.10
5392;DHT22;2719;53.624;9.786;2023-09-08T14:06:57;31.10;88.40
5392;DHT22;2719;53.624;9.786;2023-09-08T14:09:23;31.10;88.20
5392;DHT22;2719;53.624;9.786;2023-09-08T14:11:51;31.10;87.50
5392;DHT22;2719;53.624;9.786;2023-09-08T14:14:18;31.20;87.70
5392;DHT22;2719;53.624;9.786;2023-09-08T14:16:46;31.30;87.30
5392;DHT22;2719;53.624;9.786;2023-09-08T14:19:12;31.30;86.10
5392;DHT22;2719;53.624;9.786;2023-09-08T14:21:39;31.40;87.00
5392;DHT22;2719;53.624;9.786;2023-09-08T14:24:06;31.20;86.20
5392;DHT22;2719;53.624;9.786;2023-09-08T14:26:33;31.30;86.60
5392;DHT22;2719;53.624;9.786;2023-09-08T14:29:00;31.30;87.10
5392;DHT22;2719;53.624;9.786;2023-09-08T14:31:26;31.40;85.90
5392;DHT22;2719;53.624;9.786;2023-09-08T14:33:54;31.30;85.70
5392;DHT22;2719;53.624;9.786;2023-09-08T14:36:21;31.30;85.50
5392;DHT22;2719;53.624;9.786;2023-09-08T14:38:48;31.30;86.20
5392;DHT22;2719;53.624;9.786;2023-09-08T14:41:14;31.30;85.30
5392;DHT22;2719;53.624;9.786;2023-09-08T14:43:41;31.40;85.50
5392;DHT22;2719;53.624;9.786;2023-09-08T14:46:08;31.30;86.30
5392;DHT22;2719;53.624;9.786;2023-09-08T14:48:35;31.40;86.70
5392;DHT22;2719;53.624;9.786;2023-09-08T14:51:03;31.50;86.40
5392;DHT22;2719;53.624;9.786;2023-09-08T14:53:30;31.40;85.70
5392;DHT22;2719;53.624;9.786;2023-09-08T14:55:57;31.50;87.00
5392;DHT22;2719;53.624;9.786;2023-09-08T14:58:24;31.40;84.90
5392;DHT22;2719;53.624;9.786;2023-09-08T15:00:51;31.40;85.80
5392;DHT22;2719;53.624;9.786;2023-09-08T15:03:17;31.50;86.60
5392;DHT22;2719;53.624;9.786;2023-09-08T15:05:45;31.50;87.90
5392;DHT22;2719;53.624;9.786;2023-09-08T15:08:13;31.40;87.50
5392;DHT22;2719;53.624;9.786;2023-09-08T15:10:39;31.50;87.70
5392;DHT22;2719;53.624;9.786;2023-09-08T15:13:06;31.40;87.80
5392;DHT22;2719;53.624;9.786;2023-09-08T15:15:32;31.40;86.20
5392;DHT22;2719;53.624;9.786;2023-09-08T15:17:59;31.40;87.50
5392;DHT22;2719;53.624;9.786;2023-09-08T15:20:26;31.30;87.60
5392;DHT22;2719;53.624;9.786;2023-09-08T15:22:52;31.20;88.00
5392;DHT22;2719;53.624;9.786;2023-09-08T15:25:21;31.20;89.00
5392;DHT22;2719;53.624;9.786;2023-09-08T15:27:48;31.20;88.20
5392;DHT22;2719;53.624;9.786;2023-09-08T15:30:14;31.10;88.60
5392;DHT22;2719;53.624;9.786;2023-09-08T15:32:41;31.10;88.80
5392;DHT22;2719;53.624;9.786;2023-09-08T15:35:08;31.00;87.30
5392;DHT22;2719;53.624;9.786;2023-09-08T15:37:35;31.10;90.10
5392;DHT22;2719;53.624;9.786;2023-09-08T15:40:02;31.10;89.00
5392;DHT22;2719;53.624;9.786;2023-09-08T15:42:30;31.10;88.90
5392;DHT22;2719;53.624;9.786;2023-09-08T15:44:57;31.10;88.50
5392;DHT22;2719;53.624;9.786;2023-09-08T15:47:24;31.10;88.50
5392;DHT22;2719;53.624;9.786;2023-09-08T15:49:50;31.10;90.20
5392;DHT22;2719;53.624;9.786;2023-09-08T15:52:17;31.10;89.00
5392;DHT22;2719;53.624;9.786;2023-09-08T15:54:44;30.90;87.50
5392;DHT22;2719;53.624;9.786;2023-09-08T15:57:10;30.80;88.20
5392;DHT22;2719;53.624;9.786;2023-09-08T15:59:38;30.90;90.20
5392;DHT22;2719;53.624;9.786;2023-09-08T16:02:05;30.80;90.70
5392;DHT22;2719;53.624;9.786;2023-09-08T16:04:32;30.70;88.40
5392;DHT22;2719;53.624;9.786;2023-09-08T16:06:58;30.60;88.30